Rina Amoretti — IBRR — position and weather

sailwx.info

Track history (hours):
 
Tides and Currents Weather Stations Pressure Air Temp Water Temp Dewpoint Dewpoint Depression Visibility Wind Speed Wind Dir Waves Ship Positions

Rina Amoretti

Last reported at 2015-Mar-31 13:23 UTC. Time now 2015-Mar-31 16:53 UTC.
Position N 40°50' E 014°18'.

Length 119 m; draft 7.6 m.

Type: Tanker. MMSI: 247197000.

Date/timePositionNaut miles runAvg speedWind from/ knotsBaromVisibWave heightAir tempDewpointWater temp
2015-Mar-31 13:23N 40°50' E 014°18'0 0.0
2015-Mar-31 07:19N 40°50' E 014°18'4 5.2
2015-Mar-31 06:33N 40°46' E 014°17'1312.8
2015-Mar-31 05:33N 40°35' E 014°09'1312.7
2015-Mar-31 04:33N 40°22' E 014°05'9912.4
2015-Mar-30 20:33N 38°46' E 013°37'1211.6
2015-Mar-30 19:33N 38°34' E 013°34'1211.6
2015-Mar-30 18:33N 38°23' E 013°31'1212.2
2015-Mar-30 17:33N 38°11' E 013°28'4 3.8
2015-Mar-30 16:33N 38°07' E 013°29'0 0.0
2015-Mar-30 15:32N 38°07' E 013°29'0 0.0
2015-Mar-30 14:32N 38°07' E 013°29'0 0.0
2015-Mar-30 13:29N 38°07' E 013°29'0 0.0
2015-Mar-30 12:29N 38°07' E 013°29'0 0.0
2015-Mar-30 11:32N 38°07' E 013°29'0 0.0
2015-Mar-30 10:32N 38°07' E 013°29'0 0.1
2015-Mar-30 09:32N 38°07' E 013°29'0 0.0
2015-Mar-30 08:32N 38°07' E 013°29'0 0.0
2015-Mar-30 07:32N 38°07' E 013°29'0 0.0
2015-Mar-30 06:32N 38°07' E 013°29'0 0.0
2015-Mar-30 05:32N 38°07' E 013°29'0 0.0
2015-Mar-30 04:32N 38°07' E 013°29'0 0.0
2015-Mar-30 03:32N 38°07' E 013°29'0 0.0
2015-Mar-30 02:32N 38°07' E 013°29'0 0.0
2015-Mar-30 01:32N 38°07' E 013°29'0 0.0
2015-Mar-30 00:32N 38°07' E 013°29'0 0.0
2015-Mar-29 23:32N 38°07' E 013°29'0 0.0
2015-Mar-29 22:32N 38°07' E 013°29'0 0.0
2015-Mar-29 21:32N 38°07' E 013°29'0 0.0
2015-Mar-29 20:32N 38°07' E 013°29'0 0.1
2015-Mar-29 19:32N 38°07' E 013°29'0 0.0
2015-Mar-29 18:32N 38°07' E 013°29'0 0.0
2015-Mar-29 17:32N 38°07' E 013°29'0 0.0
2015-Mar-29 16:32N 38°07' E 013°29'0 0.0
2015-Mar-29 15:32N 38°07' E 013°29'0 0.0
2015-Mar-29 14:32N 38°07' E 013°29'0 0.0
2015-Mar-29 13:32N 38°07' E 013°29'0 0.0
2015-Mar-29 12:32N 38°07' E 013°29'0 0.1
2015-Mar-29 11:32N 38°07' E 013°29'5 5.0
2015-Mar-29 10:33N 38°10' E 013°34'1312.5
2015-Mar-29 09:33N 38°11' E 013°50'  
2015-Mar-26 06:33N 40°29' E 014°10'1111.0
2015-Mar-26 05:33N 40°40' E 014°12'10 9.7
2015-Mar-26 04:31N 40°49' E 014°18'0 0.0
2015-Mar-26 03:16N 40°49' E 014°18'0 0.0
2015-Mar-26 02:31N 40°49' E 014°18'0 0.0
2015-Mar-26 01:22N 40°49' E 014°18'0 0.0
2015-Mar-26 00:13N 40°49' E 014°18'0 0.0
2015-Mar-25 23:31N 40°49' E 014°18'0 0.0
2015-Mar-25 22:28N 40°49' E 014°18'0 0.0
2015-Mar-25 21:31N 40°49' E 014°18'0 0.0
2015-Mar-25 20:31N 40°49' E 014°18'0 0.0
2015-Mar-25 19:28N 40°49' E 014°18'0 0.0
2015-Mar-25 18:10N 40°49' E 014°18'0 0.0
2015-Mar-25 16:10N 40°49' E 014°18'0 0.0
2015-Mar-25 15:19N 40°49' E 014°18'0 0.0
2015-Mar-25 14:31N 40°49' E 014°18'0 0.0
2015-Mar-25 13:19N 40°49' E 014°18'0 0.0
2015-Mar-25 12:31N 40°49' E 014°18'0 0.0
2015-Mar-25 10:34N 40°49' E 014°18'0 0.0
2015-Mar-25 09:27N 40°49' E 014°18'0 0.1
2015-Mar-25 08:33N 40°49' E 014°18'1 0.3
2015-Mar-25 03:30N 40°50' E 014°18'0 0.0
2015-Mar-25 02:27N 40°50' E 014°18'0 0.0
2015-Mar-25 01:30N 40°50' E 014°18'0 0.0
2015-Mar-25 00:30N 40°50' E 014°18'0 0.0
2015-Mar-24 07:32N 40°50' E 014°17'2 2.3
2015-Mar-24 06:27N 40°48' E 014°19'0 0.0
2015-Mar-24 04:18N 40°48' E 014°19'0 0.0
2015-Mar-24 03:26N 40°48' E 014°19'0 0.0
2015-Mar-24 02:32N 40°48' E 014°19'0 0.0
2015-Mar-24 01:32N 40°48' E 014°19'0 0.0
2015-Mar-24 00:26N 40°48' E 014°19'0 0.0
2015-Mar-23 23:32N 40°48' E 014°19'0 0.0
2015-Mar-23 22:32N 40°48' E 014°19'0 0.0
2015-Mar-23 21:32N 40°48' E 014°19'0 0.0
2015-Mar-23 20:32N 40°48' E 014°19'0 0.0
2015-Mar-23 19:05N 40°48' E 014°19'0 0.0
2015-Mar-23 16:26N 40°48' E 014°19'0 0.0
2015-Mar-23 15:29N 40°48' E 014°19'0 0.0
2015-Mar-23 14:23N 40°48' E 014°20'0 0.0
2015-Mar-23 13:20N 40°48' E 014°19'0 0.3
2015-Mar-23 12:34N 40°48' E 014°19'9 8.6
2015-Mar-23 11:33N 40°41' E 014°13'1211.8
2015-Mar-23 10:34N 40°29' E 014°10'1413.2
2015-Mar-23 09:30N 40°17' E 014°19'  
Track history (hours):
 
Tides and Currents Weather Stations Pressure Air Temp Water Temp Dewpoint Dewpoint Depression Visibility Wind Speed Wind Dir Waves Ship Positions

Rina Amoretti

Last reported at 2015-Mar-31 13:23 UTC. Time now 2015-Mar-31 16:53 UTC.
Position N 40°50' E 014°18'.

Length 119 m; draft 7.6 m.

Type: Tanker. MMSI: 247197000.

Date/timePositionNaut miles runAvg speedWind from/ knotsBaromVisibWave heightAir tempDewpointWater temp
2015-Mar-31 13:23N 40°50' E 014°18'0 0.0
2015-Mar-31 07:19N 40°50' E 014°18'4 5.2
2015-Mar-31 06:33N 40°46' E 014°17'1312.8
2015-Mar-31 05:33N 40°35' E 014°09'1312.7
2015-Mar-31 04:33N 40°22' E 014°05'9912.4
2015-Mar-30 20:33N 38°46' E 013°37'1211.6
2015-Mar-30 19:33N 38°34' E 013°34'1211.6
2015-Mar-30 18:33N 38°23' E 013°31'1212.2
2015-Mar-30 17:33N 38°11' E 013°28'4 3.8
2015-Mar-30 16:33N 38°07' E 013°29'0 0.0
2015-Mar-30 15:32N 38°07' E 013°29'0 0.0
2015-Mar-30 14:32N 38°07' E 013°29'0 0.0
2015-Mar-30 13:29N 38°07' E 013°29'0 0.0
2015-Mar-30 12:29N 38°07' E 013°29'0 0.0
2015-Mar-30 11:32N 38°07' E 013°29'0 0.0
2015-Mar-30 10:32N 38°07' E 013°29'0 0.1
2015-Mar-30 09:32N 38°07' E 013°29'0 0.0
2015-Mar-30 08:32N 38°07' E 013°29'0 0.0
2015-Mar-30 07:32N 38°07' E 013°29'0 0.0
2015-Mar-30 06:32N 38°07' E 013°29'0 0.0
2015-Mar-30 05:32N 38°07' E 013°29'0 0.0
2015-Mar-30 04:32N 38°07' E 013°29'0 0.0
2015-Mar-30 03:32N 38°07' E 013°29'0 0.0
2015-Mar-30 02:32N 38°07' E 013°29'0 0.0
2015-Mar-30 01:32N 38°07' E 013°29'0 0.0
2015-Mar-30 00:32N 38°07' E 013°29'0 0.0
2015-Mar-29 23:32N 38°07' E 013°29'0 0.0
2015-Mar-29 22:32N 38°07' E 013°29'0 0.0
2015-Mar-29 21:32N 38°07' E 013°29'0 0.0
2015-Mar-29 20:32N 38°07' E 013°29'0 0.1
2015-Mar-29 19:32N 38°07' E 013°29'0 0.0
2015-Mar-29 18:32N 38°07' E 013°29'0 0.0
2015-Mar-29 17:32N 38°07' E 013°29'0 0.0
2015-Mar-29 16:32N 38°07' E 013°29'0 0.0
2015-Mar-29 15:32N 38°07' E 013°29'0 0.0
2015-Mar-29 14:32N 38°07' E 013°29'0 0.0
2015-Mar-29 13:32N 38°07' E 013°29'0 0.0
2015-Mar-29 12:32N 38°07' E 013°29'0 0.1
2015-Mar-29 11:32N 38°07' E 013°29'5 5.0
2015-Mar-29 10:33N 38°10' E 013°34'1312.5
2015-Mar-29 09:33N 38°11' E 013°50'  
2015-Mar-26 06:33N 40°29' E 014°10'1111.0
2015-Mar-26 05:33N 40°40' E 014°12'10 9.7
2015-Mar-26 04:31N 40°49' E 014°18'0 0.0
2015-Mar-26 03:16N 40°49' E 014°18'0 0.0
2015-Mar-26 02:31N 40°49' E 014°18'0 0.0
2015-Mar-26 01:22N 40°49' E 014°18'0 0.0
2015-Mar-26 00:13N 40°49' E 014°18'0 0.0
2015-Mar-25 23:31N 40°49' E 014°18'0 0.0
2015-Mar-25 22:28N 40°49' E 014°18'0 0.0
2015-Mar-25 21:31N 40°49' E 014°18'0 0.0
2015-Mar-25 20:31N 40°49' E 014°18'0 0.0
2015-Mar-25 19:28N 40°49' E 014°18'0 0.0
2015-Mar-25 18:10N 40°49' E 014°18'0 0.0
2015-Mar-25 16:10N 40°49' E 014°18'0 0.0
2015-Mar-25 15:19N 40°49' E 014°18'0 0.0
2015-Mar-25 14:31N 40°49' E 014°18'0 0.0
2015-Mar-25 13:19N 40°49' E 014°18'0 0.0
2015-Mar-25 12:31N 40°49' E 014°18'0 0.0
2015-Mar-25 10:34N 40°49' E 014°18'0 0.0
2015-Mar-25 09:27N 40°49' E 014°18'0 0.1
2015-Mar-25 08:33N 40°49' E 014°18'1 0.3
2015-Mar-25 03:30N 40°50' E 014°18'0 0.0
2015-Mar-25 02:27N 40°50' E 014°18'0 0.0
2015-Mar-25 01:30N 40°50' E 014°18'0 0.0
2015-Mar-25 00:30N 40°50' E 014°18'0 0.0
2015-Mar-24 07:32N 40°50' E 014°17'2 2.3
2015-Mar-24 06:27N 40°48' E 014°19'0 0.0
2015-Mar-24 04:18N 40°48' E 014°19'0 0.0
2015-Mar-24 03:26N 40°48' E 014°19'0 0.0
2015-Mar-24 02:32N 40°48' E 014°19'0 0.0
2015-Mar-24 01:32N 40°48' E 014°19'0 0.0
2015-Mar-24 00:26N 40°48' E 014°19'0 0.0
2015-Mar-23 23:32N 40°48' E 014°19'0 0.0
2015-Mar-23 22:32N 40°48' E 014°19'0 0.0
2015-Mar-23 21:32N 40°48' E 014°19'0 0.0
2015-Mar-23 20:32N 40°48' E 014°19'0 0.0
2015-Mar-23 19:05N 40°48' E 014°19'0 0.0
2015-Mar-23 16:26N 40°48' E 014°19'0 0.0
2015-Mar-23 15:29N 40°48' E 014°19'0 0.0
2015-Mar-23 14:23N 40°48' E 014°20'0 0.0
2015-Mar-23 13:20N 40°48' E 014°19'0 0.3
2015-Mar-23 12:34N 40°48' E 014°19'9 8.6
2015-Mar-23 11:33N 40°41' E 014°13'1211.8
2015-Mar-23 10:34N 40°29' E 014°10'1413.2
2015-Mar-23 09:30N 40°17' E 014°19'  

Dump ship's entire track history